Time;durP1;ratioP1;P1;durP2;ratioP2;P2;SDS_P1;SDS_P2;PMS_P1;PMS_P2;Temp;Humidity;BMP_temperature;BMP_pressure;BME280_temperature;BME280_humidity;BME280_pressure;Samples;Min_cycle;Max_cycle;Signal;HPM_P1;HPM_P2
2023/12/08 00:01:32;;;;;;;2.50;2.30;;;18.10;54.60;;;;;;4994624;28;20046;-65
2023/12/08 00:03:58;;;;;;;2.00;1.90;;;18.10;54.70;;;;;;4991716;28;20038;-60
2023/12/08 00:06:23;;;;;;;2.17;1.98;;;18.10;54.80;;;;;;4994281;28;20111;-67
2023/12/08 00:08:49;;;;;;;2.10;1.83;;;18.10;54.80;;;;;;4996211;28;20027;-65
2023/12/08 00:11:14;;;;;;;3.92;2.22;;;18.00;54.90;;;;;;4994692;28;20054;-66
2023/12/08 00:13:41;;;;;;;2.05;1.83;;;18.00;55.00;;;;;;4995619;28;20382;-66
2023/12/08 00:16:08;;;;;;;2.13;1.98;;;18.00;55.10;;;;;;4989914;28;20287;-64
2023/12/08 00:18:34;;;;;;;2.08;1.85;;;18.00;55.10;;;;;;4990129;28;20096;-65
2023/12/08 00:20:59;;;;;;;2.25;2.05;;;17.90;55.20;;;;;;5011257;28;20029;-64
2023/12/08 00:23:25;;;;;;;1.95;1.85;;;17.90;55.20;;;;;;4996602;28;20022;-67
2023/12/08 00:25:50;;;;;;;2.35;2.03;;;17.90;55.30;;;;;;4988769;28;20429;-65
2023/12/08 00:28:16;;;;;;;2.60;2.40;;;17.80;55.20;;;;;;4987562;28;20030;-65
2023/12/08 00:30:41;;;;;;;2.53;2.22;;;17.90;55.20;;;;;;4985600;28;20031;-63
2023/12/08 00:33:07;;;;;;;2.53;2.05;;;18.00;54.90;;;;;;4998449;28;20116;-59
2023/12/08 00:35:32;;;;;;;2.25;2.05;;;18.20;54.40;;;;;;4998238;28;20498;-64
2023/12/08 00:37:58;;;;;;;2.38;1.98;;;18.60;53.70;;;;;;4992348;28;20230;-59
2023/12/08 00:40:23;;;;;;;2.33;2.05;;;19.10;52.70;;;;;;4997697;28;20030;-66
2023/12/08 00:42:49;;;;;;;2.20;2.00;;;19.60;51.90;;;;;;4988370;28;20029;-65
2023/12/08 00:45:17;;;;;;;2.63;1.95;;;20.10;51.10;;;;;;4996366;28;20080;-64
2023/12/08 00:47:43;;;;;;;2.20;2.00;;;20.30;50.50;;;;;;4987623;28;20038;-66
2023/12/08 00:50:09;;;;;;;2.22;2.03;;;20.60;50.20;;;;;;4998893;28;20026;-66
2023/12/08 00:52:34;;;;;;;2.30;2.10;;;20.90;49.80;;;;;;5011964;28;20036;-59
2023/12/08 00:55:00;;;;;;;2.05;1.85;;;21.10;49.40;;;;;;4997841;28;20038;-66
2023/12/08 00:57:26;;;;;;;1.85;1.75;;;21.20;49.20;;;;;;4999545;28;20041;-65
2023/12/08 00:59:51;;;;;;;2.17;1.80;;;21.30;49.10;;;;;;5003209;28;20561;-68
2023/12/08 01:02:17;;;;;;;2.60;2.03;;;21.40;49.00;;;;;;4998970;28;20096;-69
2023/12/08 01:04:42;;;;;;;5.30;1.60;;;21.40;49.10;;;;;;4998254;28;20077;-62
2023/12/08 01:07:09;;;;;;;1.70;1.60;;;21.40;49.10;;;;;;4996561;28;20403;-66
2023/12/08 01:09:35;;;;;;;2.05;1.70;;;21.30;49.30;;;;;;4997007;28;20325;-66
2023/12/08 01:12:00;;;;;;;1.65;1.55;;;21.20;49.50;;;;;;4991433;28;20578;-66
2023/12/08 01:14:26;;;;;;;2.58;2.35;;;21.10;49.70;;;;;;4998134;28;20053;-67
2023/12/08 01:16:51;;;;;;;1.52;1.42;;;21.00;49.90;;;;;;4996043;28;20030;-67
2023/12/08 01:19:16;;;;;;;1.70;1.60;;;20.90;50.10;;;;;;5001113;28;20037;-66
2023/12/08 01:21:42;;;;;;;1.90;1.80;;;20.70;50.40;;;;;;4994614;28;20031;-64
2023/12/08 01:24:08;;;;;;;1.83;1.60;;;20.60;50.60;;;;;;5003566;28;20109;-65
2023/12/08 01:26:33;;;;;;;1.80;1.70;;;20.50;50.80;;;;;;4988908;28;20027;-67
2023/12/08 01:28:59;;;;;;;1.60;1.50;;;20.40;51.00;;;;;;5002878;28;20034;-67
2023/12/08 01:31:24;;;;;;;1.98;1.77;;;20.30;51.20;;;;;;4988013;28;20041;-64
2023/12/08 01:33:50;;;;;;;2.15;1.95;;;20.30;51.50;;;;;;4979575;28;20511;-66
2023/12/08 01:36:15;;;;;;;2.15;1.95;;;20.20;51.60;;;;;;4992627;28;20435;-67
2023/12/08 01:38:44;;;;;;;2.03;1.83;;;20.10;51.70;;;;;;4986093;28;20104;-65
2023/12/08 01:41:15;;;;;;;2.05;1.80;;;20.00;51.90;;;;;;4993154;28;20108;-67
2023/12/08 01:43:42;;;;;;;2.25;2.03;;;19.90;52.00;;;;;;4994656;28;20501;-67
2023/12/08 01:46:08;;;;;;;2.05;1.85;;;19.80;52.20;;;;;;4995098;28;20031;-65
2023/12/08 01:48:34;;;;;;;1.90;1.67;;;19.70;52.30;;;;;;4998985;28;20033;-65
2023/12/08 01:51:03;;;;;;;2.15;1.95;;;19.70;52.40;;;;;;4991716;28;20058;-65
2023/12/08 01:53:29;;;;;;;1.95;1.70;;;19.60;52.50;;;;;;4999320;28;20030;-68
2023/12/08 01:55:54;;;;;;;2.33;2.13;;;19.50;52.80;;;;;;5001652;28;20045;-69
2023/12/08 01:58:20;;;;;;;1.95;1.80;;;19.40;52.80;;;;;;4994980;28;20077;-67
2023/12/08 02:00:45;;;;;;;2.00;1.90;;;19.40;53.10;;;;;;4988066;28;20433;-68
2023/12/08 02:03:13;;;;;;;2.28;1.75;;;19.30;52.90;;;;;;4984764;28;20022;-68
2023/12/08 02:05:41;;;;;;;2.10;1.90;;;19.20;53.20;;;;;;4988567;28;21269;-66
2023/12/08 02:08:07;;;;;;;2.22;2.03;;;19.20;53.40;;;;;;5002717;28;20030;-63
2023/12/08 02:10:32;;;;;;;2.42;2.17;;;19.10;53.50;;;;;;4998854;28;20065;-67
2023/12/08 02:12:58;;;;;;;2.33;1.95;;;19.00;53.60;;;;;;4995856;28;20026;-67
2023/12/08 02:15:23;;;;;;;2.45;2.05;;;19.00;53.70;;;;;;4993385;28;20036;-69
2023/12/08 02:17:50;;;;;;;2.03;1.83;;;18.90;53.70;;;;;;4995110;28;20503;-68
2023/12/08 02:20:16;;;;;;;2.70;2.15;;;18.90;53.60;;;;;;5002489;28;20026;-67
2023/12/08 02:22:41;;;;;;;2.47;2.28;;;18.90;53.70;;;;;;4992125;28;20034;-65
2023/12/08 02:25:07;;;;;;;2.00;1.80;;;18.80;53.70;;;;;;4983432;28;20030;-66
2023/12/08 02:27:33;;;;;;;2.10;1.90;;;18.70;53.80;;;;;;4991278;28;20061;-66
2023/12/08 02:29:59;;;;;;;2.10;1.90;;;18.70;53.80;;;;;;4997859;28;20497;-65
2023/12/08 02:32:58;;;;;;;2.03;1.80;;;18.70;53.70;;;;;;4993687;28;20030;-66
2023/12/08 02:35:24;;;;;;;2.00;1.77;;;18.60;53.90;;;;;;4976948;28;20034;-66
2023/12/08 02:37:51;;;;;;;1.77;1.67;;;18.60;53.80;;;;;;4991360;28;20428;-68
2023/12/08 02:40:17;;;;;;;2.47;2.00;;;18.60;54.00;;;;;;4989540;28;20049;-65
2023/12/08 02:42:43;;;;;;;2.03;1.67;;;18.50;53.80;;;;;;4996698;28;20038;-64
2023/12/08 02:45:09;;;;;;;2.03;1.83;;;18.50;53.90;;;;;;4991266;28;20038;-68
2023/12/08 02:47:34;;;;;;;2.33;2.13;;;18.50;54.50;;;;;;5004943;28;20037;-66
2023/12/08 02:50:00;;;;;;;2.30;1.83;;;18.40;53.80;;;;;;4996963;28;20030;-67
2023/12/08 02:52:25;;;;;;;2.08;1.83;;;18.40;54.00;;;;;;4987521;28;20034;-67
2023/12/08 02:54:51;;;;;;;1.90;1.70;;;18.30;54.00;;;;;;4984417;28;20077;-64
2023/12/08 02:57:16;;;;;;;1.70;1.60;;;18.30;53.90;;;;;;4979097;28;20498;-67
2023/12/08 02:59:42;;;;;;;2.33;2.10;;;18.30;54.10;;;;;;4984501;28;20064;-66
2023/12/08 03:02:07;;;;;;;2.15;1.70;;;18.30;54.10;;;;;;4982892;28;20823;-67
2023/12/08 03:04:32;;;;;;;2.25;2.05;;;18.20;54.20;;;;;;4982657;28;20065;-66
2023/12/08 03:06:58;;;;;;;3.05;1.80;;;18.20;54.30;;;;;;4983389;28;20038;-66
2023/12/08 03:09:23;;;;;;;2.40;2.20;;;18.10;54.40;;;;;;4979427;28;20129;-67
2023/12/08 03:11:49;;;;;;;2.17;1.80;;;18.10;54.50;;;;;;4982226;28;20038;-68
2023/12/08 03:14:15;;;;;;;1.73;1.63;;;18.10;54.60;;;;;;4984989;28;20452;-66
2023/12/08 03:16:40;;;;;;;2.50;2.30;;;18.10;54.60;;;;;;4982114;28;20026;-66
2023/12/08 03:19:06;;;;;;;2.72;2.22;;;18.00;54.70;;;;;;4972624;28;20035;-66
2023/12/08 03:21:32;;;;;;;2.17;1.98;;;18.10;54.80;;;;;;4975050;28;20134;-64
2023/12/08 03:23:57;;;;;;;3.08;1.60;;;18.00;54.80;;;;;;4981718;28;20765;-68
2023/12/08 03:26:23;;;;;;;1.70;1.60;;;18.00;54.90;;;;;;4970603;28;20033;-60
2023/12/08 03:28:49;;;;;;;2.05;1.70;;;18.00;54.90;;;;;;4979133;28;20045;-68
2023/12/08 03:31:25;;;;;;;1.77;1.65;;;17.90;54.90;;;;;;4984026;28;20027;-64
2023/12/08 03:33:50;;;;;;;1.92;1.63;;;17.90;54.70;;;;;;4975352;28;20034;-63
2023/12/08 03:36:16;;;;;;;1.88;1.70;;;18.00;55.00;;;;;;4976993;28;20092;-59
2023/12/08 03:38:41;;;;;;;1.70;1.42;;;18.20;54.20;;;;;;4976657;28;20068;-63
2023/12/08 03:41:07;;;;;;;1.60;1.50;;;18.60;53.50;;;;;;4973506;28;20034;-64
2023/12/08 03:43:32;;;;;;;1.83;1.70;;;19.00;52.80;;;;;;4981587;28;20026;-62
2023/12/08 03:45:58;;;;;;;1.40;1.30;;;19.50;52.00;;;;;;4980751;28;20077;-65
2023/12/08 03:48:23;;;;;;;2.00;1.80;;;19.90;51.10;;;;;;4982280;28;20084;-67
2023/12/08 03:50:49;;;;;;;2.08;1.70;;;20.40;50.50;;;;;;4983642;28;20056;-66
2023/12/08 03:53:14;;;;;;;1.83;1.67;;;20.60;49.90;;;;;;4984451;28;20042;-64
2023/12/08 03:55:40;;;;;;;1.85;1.58;;;20.80;49.60;;;;;;4976468;28;20030;-65
2023/12/08 03:58:05;;;;;;;1.58;1.48;;;21.10;49.40;;;;;;4974745;28;20429;-65
2023/12/08 04:00:30;;;;;;;1.52;1.20;;;21.30;48.90;;;;;;4980747;28;20617;-67
2023/12/08 04:02:56;;;;;;;1.70;1.60;;;21.50;48.60;;;;;;4980262;28;20043;-64
2023/12/08 04:05:21;;;;;;;2.05;1.83;;;21.60;48.50;;;;;;4980770;28;20047;-66
2023/12/08 04:07:47;;;;;;;1.70;1.55;;;21.70;48.40;;;;;;4978828;28;20505;-60
2023/12/08 04:10:12;;;;;;;1.30;1.20;;;21.70;48.40;;;;;;4984047;28;20085;-66
2023/12/08 04:12:38;;;;;;;1.70;1.52;;;21.60;48.70;;;;;;4989160;28;20041;-68
2023/12/08 04:15:04;;;;;;;1.73;1.45;;;21.50;48.80;;;;;;4984733;28;20141;-62
2023/12/08 04:17:29;;;;;;;1.85;1.50;;;21.40;49.00;;;;;;4981171;28;20034;-67
2023/12/08 04:19:55;;;;;;;1.50;1.40;;;21.30;49.30;;;;;;4985607;28;20039;-63
2023/12/08 04:22:20;;;;;;;1.65;1.55;;;21.20;49.50;;;;;;4974456;28;20117;-66
2023/12/08 04:24:46;;;;;;;1.70;1.50;;;21.10;49.80;;;;;;4980653;28;20038;-66
2023/12/08 04:27:11;;;;;;;1.55;1.45;;;21.00;50.00;;;;;;4978703;28;20041;-66
2023/12/08 04:29:37;;;;;;;1.70;1.60;;;20.80;50.20;;;;;;4988692;28;20034;-69
2023/12/08 04:32:02;;;;;;;1.45;1.35;;;20.80;50.50;;;;;;4984149;28;20035;-63
2023/12/08 04:34:28;;;;;;;1.83;1.35;;;20.70;50.60;;;;;;4984649;28;20744;-67
2023/12/08 04:36:53;;;;;;;1.40;1.30;;;20.60;50.90;;;;;;4986394;28;20655;-66
2023/12/08 04:39:19;;;;;;;1.50;1.40;;;20.40;51.00;;;;;;4984685;28;20034;-64
2023/12/08 04:41:44;;;;;;;1.27;1.17;;;20.40;51.20;;;;;;4981587;28;20126;-66
2023/12/08 04:44:10;;;;;;;1.38;1.27;;;20.30;51.30;;;;;;4987514;28;20026;-66
2023/12/08 04:46:35;;;;;;;1.85;1.60;;;20.20;51.50;;;;;;4986087;28;20056;-63
2023/12/08 04:49:01;;;;;;;1.45;1.35;;;20.10;51.60;;;;;;4981178;28;20026;-66
2023/12/08 04:51:26;;;;;;;2.35;1.20;;;20.00;51.70;;;;;;4981019;28;20038;-61
2023/12/08 04:53:52;;;;;;;1.50;1.23;;;19.90;51.90;;;;;;4986216;28;20448;-65
2023/12/08 04:56:17;;;;;;;1.10;1.00;;;19.80;52.10;;;;;;4988702;28;20033;-67
2023/12/08 04:58:43;;;;;;;1.33;1.23;;;19.70;52.30;;;;;;4982140;28;20062;-64
2023/12/08 05:01:14;;;;;;;1.20;1.10;;;19.70;52.40;;;;;;4979381;28;20039;-65
2023/12/08 05:03:40;;;;;;;1.17;1.10;;;19.60;52.60;;;;;;4988790;28;20038;-66
2023/12/08 05:06:07;;;;;;;1.48;1.38;;;19.50;52.70;;;;;;4990035;28;21911;-67
2023/12/08 05:08:32;;;;;;;1.63;1.35;;;19.40;52.90;;;;;;4984052;28;20058;-66
2023/12/08 05:10:58;;;;;;;1.38;1.27;;;19.40;53.10;;;;;;4979325;28;20116;-66
2023/12/08 05:13:23;;;;;;;1.60;1.50;;;19.30;53.00;;;;;;4987385;28;20113;-67
2023/12/08 05:15:49;;;;;;;1.38;1.27;;;19.30;53.10;;;;;;4987184;28;20030;-65
2023/12/08 05:18:14;;;;;;;1.50;1.30;;;19.20;53.30;;;;;;4988516;28;20461;-66
2023/12/08 05:20:40;;;;;;;1.60;1.50;;;19.10;53.30;;;;;;4983416;28;20026;-67
2023/12/08 05:23:05;;;;;;;1.55;1.45;;;19.10;53.40;;;;;;4979731;28;20711;-66
2023/12/08 05:25:31;;;;;;;1.20;1.10;;;19.00;53.30;;;;;;4982663;28;20027;-67
2023/12/08 05:27:56;;;;;;;1.30;1.20;;;19.00;53.30;;;;;;4982483;28;20591;-67
2023/12/08 05:30:22;;;;;;;1.77;1.48;;;18.90;53.40;;;;;;4988116;28;20026;-65
2023/12/08 05:32:48;;;;;;;1.35;1.20;;;18.90;53.50;;;;;;4988310;28;20034;-65
2023/12/08 05:35:13;;;;;;;1.85;1.10;;;18.90;53.60;;;;;;4988690;28;20034;-65
2023/12/08 05:37:39;;;;;;;1.40;1.30;;;18.80;53.40;;;;;;4988982;28;20030;-67
2023/12/08 05:40:06;;;;;;;1.13;0.95;;;18.80;53.60;;;;;;4978496;28;20035;-66
2023/12/08 05:42:32;;;;;;;1.20;1.10;;;18.70;53.40;;;;;;4987681;28;20027;-67
2023/12/08 05:44:58;;;;;;;1.40;1.30;;;18.70;53.50;;;;;;4985330;28;20449;-66
2023/12/08 05:47:23;;;;;;;1.63;1.35;;;18.60;53.50;;;;;;4976944;28;20038;-68
2023/12/08 05:49:49;;;;;;;1.77;1.58;;;18.60;53.60;;;;;;4981873;28;20042;-64
2023/12/08 05:52:15;;;;;;;1.73;1.42;;;18.50;53.40;;;;;;4976161;28;20030;-67
2023/12/08 05:54:40;;;;;;;1.60;1.50;;;18.50;53.60;;;;;;4981380;28;20511;-68
2023/12/08 05:57:06;;;;;;;1.83;1.60;;;18.50;53.60;;;;;;4983929;28;20124;-67
2023/12/08 05:59:31;;;;;;;2.08;1.48;;;18.50;53.70;;;;;;4981844;28;20046;-66
2023/12/08 06:01:57;;;;;;;1.48;1.27;;;18.40;53.50;;;;;;4980915;28;20042;-66
2023/12/08 06:04:22;;;;;;;1.60;1.50;;;18.40;53.60;;;;;;4982972;28;20092;-67
2023/12/08 06:06:48;;;;;;;2.70;1.25;;;18.40;53.60;;;;;;4988085;28;20517;-66
2023/12/08 06:09:13;;;;;;;1.25;1.15;;;18.40;53.80;;;;;;4994611;28;20070;-64
2023/12/08 06:11:39;;;;;;;1.27;1.17;;;18.30;53.80;;;;;;4993656;28;20041;-66
2023/12/08 06:14:06;;;;;;;1.88;1.45;;;18.30;53.80;;;;;;4991299;28;20035;-62
2023/12/08 06:16:32;;;;;;;1.90;1.30;;;18.20;54.00;;;;;;4986700;28;20173;-65
2023/12/08 06:18:57;;;;;;;1.75;1.65;;;18.20;54.10;;;;;;4985846;28;20346;-66
2023/12/08 06:21:23;;;;;;;1.13;1.02;;;18.20;54.30;;;;;;4989974;28;20421;-67
2023/12/08 06:23:48;;;;;;;1.50;1.40;;;18.10;54.30;;;;;;4987689;28;20089;-65
2023/12/08 06:26:14;;;;;;;1.08;0.98;;;18.10;54.40;;;;;;4991346;28;20672;-66
2023/12/08 06:28:40;;;;;;;1.70;1.60;;;18.10;54.50;;;;;;4987535;28;20038;-66
2023/12/08 06:31:09;;;;;;;1.60;1.50;;;18.10;54.60;;;;;;4988127;28;20567;-68
2023/12/08 06:33:35;;;;;;;1.55;1.25;;;18.00;54.60;;;;;;4990938;28;20037;-62
2023/12/08 06:36:00;;;;;;;2.05;1.60;;;18.00;54.60;;;;;;4997230;28;20069;-60
2023/12/08 06:38:26;;;;;;;2.70;1.60;;;18.00;54.70;;;;;;4991414;28;20082;-64
2023/12/08 06:40:53;;;;;;;1.73;1.60;;;18.00;54.70;;;;;;4987459;28;20586;-65
2023/12/08 06:43:19;;;;;;;2.42;1.88;;;18.00;54.80;;;;;;4984245;28;20117;-66
2023/12/08 06:45:45;;;;;;;2.47;2.00;;;18.00;54.60;;;;;;4989119;28;20035;-66
2023/12/08 06:48:10;;;;;;;2.47;2.03;;;18.10;54.30;;;;;;4988494;28;20057;-68
2023/12/08 06:50:36;;;;;;;3.00;2.30;;;18.30;53.80;;;;;;4984797;28;20042;-68
2023/12/08 06:53:01;;;;;;;4.90;2.58;;;18.70;53.20;;;;;;4985521;28;20022;-69
2023/12/08 06:55:27;;;;;;;5.05;2.80;;;19.20;52.50;;;;;;4989049;28;20085;-65
2023/12/08 06:57:53;;;;;;;3.85;2.45;;;19.60;51.70;;;;;;4983974;28;20030;-68
2023/12/08 07:00:19;;;;;;;4.15;2.22;;;19.80;51.10;;;;;;4979659;28;20596;-67
2023/12/08 07:02:46;;;;;;;5.03;2.58;;;20.10;50.60;;;;;;4980680;28;20078;-63
2023/12/08 07:05:11;;;;;;;6.05;2.25;;;20.40;50.30;;;;;;4978419;28;20344;-66
2023/12/08 07:07:36;;;;;;;5.13;2.55;;;20.60;50.00;;;;;;4985562;28;20045;-67
2023/12/08 07:10:02;;;;;;;4.07;2.70;;;20.70;49.80;;;;;;4984895;28;20027;-67
2023/12/08 07:12:28;;;;;;;3.97;2.17;;;20.80;49.60;;;;;;4984684;28;20057;-66
2023/12/08 07:14:53;;;;;;;3.10;2.03;;;21.00;49.40;;;;;;4986267;28;20161;-66
2023/12/08 07:17:19;;;;;;;4.68;2.70;;;21.10;49.30;;;;;;4986734;28;20706;-65
2023/12/08 07:19:44;;;;;;;2.88;2.30;;;21.10;49.20;;;;;;4988392;28;20043;-66
2023/12/08 07:22:10;;;;;;;3.53;2.13;;;21.20;49.30;;;;;;4985744;28;20030;-67
2023/12/08 07:24:37;;;;;;;4.95;2.42;;;21.20;49.30;;;;;;4984292;28;20072;-68
2023/12/08 07:27:03;;;;;;;3.95;2.63;;;21.10;49.40;;;;;;4982818;28;20107;-67
2023/12/08 07:29:28;;;;;;;5.80;2.63;;;21.10;49.60;;;;;;4979851;28;20465;-66
2023/12/08 07:31:54;;;;;;;3.38;2.15;;;21.00;49.60;;;;;;4984160;28;20096;-66
2023/12/08 07:34:19;;;;;;;3.50;2.70;;;20.90;49.80;;;;;;4974234;28;20342;-69
2023/12/08 07:36:45;;;;;;;3.13;2.45;;;20.80;50.10;;;;;;4981004;28;20093;-67
2023/12/08 07:39:10;;;;;;;3.33;2.22;;;20.70;50.20;;;;;;4982974;28;20038;-68
2023/12/08 07:41:36;;;;;;;4.60;2.40;;;20.60;50.40;;;;;;4983015;28;20600;-66
2023/12/08 07:44:02;;;;;;;3.90;2.70;;;20.50;50.60;;;;;;4982066;28;20029;-66
2023/12/08 07:46:27;;;;;;;3.35;2.50;;;20.40;50.80;;;;;;4980407;28;20034;-68
2023/12/08 07:48:53;;;;;;;4.65;3.53;;;20.30;51.00;;;;;;4944436;28;20595;-68
2023/12/08 07:51:19;;;;;;;7.13;2.90;;;20.20;51.10;;;;;;4987278;28;20401;-66
2023/12/08 07:53:45;;;;;;;4.63;3.30;;;20.20;51.30;;;;;;4977502;28;20030;-67
2023/12/08 07:56:12;;;;;;;4.28;2.72;;;20.10;51.40;;;;;;4976340;28;20081;-67
2023/12/08 07:58:38;;;;;;;3.67;2.80;;;20.00;51.50;;;;;;4982624;28;20062;-67
2023/12/08 08:01:04;;;;;;;3.50;2.30;;;19.90;51.60;;;;;;4979780;28;20094;-65
2023/12/08 08:03:29;;;;;;;3.72;2.55;;;19.80;51.80;;;;;;4984422;28;20094;-66
2023/12/08 08:05:55;;;;;;;4.38;2.55;;;19.70;51.90;;;;;;4981104;28;20030;-66
2023/12/08 08:08:21;;;;;;;4.80;2.25;;;19.70;52.20;;;;;;4973488;28;21518;-66
2023/12/08 08:10:46;;;;;;;4.10;2.50;;;19.60;52.40;;;;;;4981099;28;20109;-65
2023/12/08 08:13:12;;;;;;;3.50;2.13;;;19.60;52.50;;;;;;4980632;28;20489;-62
2023/12/08 08:15:37;;;;;;;3.67;2.67;;;19.50;52.50;;;;;;4981668;28;20678;-65
2023/12/08 08:18:03;;;;;;;5.30;2.75;;;19.40;52.60;;;;;;4978310;28;20030;-66
2023/12/08 08:20:29;;;;;;;3.70;2.67;;;19.30;52.70;;;;;;4977648;28;20516;-67
2023/12/08 08:22:55;;;;;;;3.15;2.63;;;19.30;52.90;;;;;;4978941;28;20058;-66
2023/12/08 08:25:20;;;;;;;2.95;2.63;;;19.20;53.00;;;;;;4961401;28;20066;-67
2023/12/08 08:27:46;;;;;;;4.30;2.85;;;19.20;53.20;;;;;;4981653;28;20059;-67
2023/12/08 08:30:12;;;;;;;4.38;2.75;;;19.10;53.30;;;;;;4983725;28;20521;-68
2023/12/08 08:32:37;;;;;;;4.28;2.80;;;19.10;53.40;;;;;;4983237;28;20054;-64
2023/12/08 08:35:03;;;;;;;3.45;2.72;;;19.00;53.40;;;;;;4983026;28;20042;-68
2023/12/08 08:37:28;;;;;;;5.15;2.65;;;18.90;53.30;;;;;;4982019;28;20082;-67
2023/12/08 08:39:54;;;;;;;4.60;2.50;;;18.90;53.20;;;;;;4982066;28;20050;-65
2023/12/08 08:42:19;;;;;;;4.35;2.90;;;18.90;53.50;;;;;;4984444;28;20049;-68
2023/12/08 08:44:45;;;;;;;3.85;2.45;;;18.80;53.40;;;;;;4984202;28;20035;-63
2023/12/08 08:47:12;;;;;;;4.15;2.55;;;18.80;53.60;;;;;;4979502;28;20030;-67
2023/12/08 08:49:38;;;;;;;5.00;2.72;;;18.80;53.50;;;;;;4981756;28;20039;-67
2023/12/08 08:52:03;;;;;;;3.15;2.50;;;18.70;53.50;;;;;;4984506;28;20093;-67
2023/12/08 08:54:29;;;;;;;3.88;2.55;;;18.70;53.70;;;;;;4988283;28;20042;-66
2023/12/08 08:56:55;;;;;;;4.78;2.67;;;18.70;53.60;;;;;;4971411;28;20031;-66
2023/12/08 08:59:20;;;;;;;3.40;2.35;;;18.60;53.70;;;;;;4986275;28;20046;-65
2023/12/08 09:01:46;;;;;;;3.92;2.50;;;18.60;53.60;;;;;;4986721;28;20083;-65
2023/12/08 09:04:11;;;;;;;4.22;2.65;;;18.60;53.60;;;;;;4985024;28;20038;-66
2023/12/08 09:06:37;;;;;;;5.82;3.17;;;18.50;53.70;;;;;;4983805;28;20064;-65
2023/12/08 09:09:07;;;;;;;4.25;2.90;;;18.50;53.80;;;;;;4969328;28;20089;-68
2023/12/08 09:11:32;;;;;;;4.13;3.00;;;18.50;53.90;;;;;;4984304;28;20034;-69
2023/12/08 09:13:58;;;;;;;3.70;2.50;;;18.40;53.90;;;;;;4984118;28;20033;-67
2023/12/08 09:16:23;;;;;;;11.25;2.92;;;18.40;54.00;;;;;;4982024;28;20039;-68
2023/12/08 09:18:49;;;;;;;4.40;2.78;;;18.30;53.90;;;;;;4983285;28;20521;-68
2023/12/08 09:21:14;;;;;;;5.20;2.65;;;18.30;54.00;;;;;;4983695;28;20081;-67
2023/12/08 09:23:40;;;;;;;4.40;2.67;;;18.30;54.10;;;;;;4983383;28;20125;-67
2023/12/08 09:26:05;;;;;;;5.15;2.67;;;18.30;54.10;;;;;;4968472;28;20042;-68
2023/12/08 09:28:31;;;;;;;4.43;2.60;;;18.20;54.30;;;;;;4985408;28;20070;-66
2023/12/08 09:30:56;;;;;;;2.67;2.20;;;18.20;54.30;;;;;;4986493;28;20035;-67
2023/12/08 09:33:21;;;;;;;4.03;2.47;;;18.20;54.40;;;;;;4938167;28;20048;-67
2023/12/08 09:35:47;;;;;;;3.47;2.80;;;18.20;54.40;;;;;;4987080;28;20465;-68
2023/12/08 09:38:12;;;;;;;3.38;2.50;;;18.20;54.50;;;;;;4985845;28;20034;-65
2023/12/08 09:40:41;;;;;;;2.28;2.00;;;18.10;54.60;;;;;;4985418;28;20347;-66
2023/12/08 09:43:42;;;;;;;4.30;2.47;;;18.10;54.60;;;;;;4983735;28;20112;-65
2023/12/08 09:46:09;;;;;;;3.65;2.40;;;18.10;54.60;;;;;;4983923;28;20038;-67
2023/12/08 09:48:37;;;;;;;4.50;2.67;;;18.10;54.70;;;;;;4986247;28;20064;-65
2023/12/08 09:51:03;;;;;;;4.70;2.33;;;18.00;54.60;;;;;;4986463;28;20039;-67
2023/12/08 09:53:31;;;;;;;4.18;2.63;;;18.00;54.80;;;;;;4992126;28;20125;-63
2023/12/08 09:55:57;;;;;;;3.63;2.53;;;18.00;54.70;;;;;;4989468;28;20034;-67
2023/12/08 09:58:26;;;;;;;3.47;2.65;;;18.00;54.70;;;;;;4986811;28;20114;-65
2023/12/08 10:00:51;;;;;;;3.15;2.42;;;18.00;54.70;;;;;;4993381;28;20037;-68
2023/12/08 10:03:17;;;;;;;4.55;2.90;;;18.20;54.50;;;;;;4992219;28;20102;-66
2023/12/08 10:05:42;;;;;;;3.83;2.65;;;18.30;54.10;;;;;;4995279;28;20019;-67
2023/12/08 10:08:09;;;;;;;3.10;2.50;;;18.50;53.70;;;;;;4994410;28;20038;-67
2023/12/08 10:10:35;;;;;;;3.05;2.45;;;18.50;53.40;;;;;;4981920;28;20084;-65
2023/12/08 10:13:01;;;;;;;4.13;2.83;;;18.60;53.20;;;;;;4981670;28;20497;-65
2023/12/08 10:15:27;;;;;;;3.90;2.47;;;18.60;53.20;;;;;;4982554;28;20030;-65
2023/12/08 10:17:53;;;;;;;3.03;2.50;;;18.70;53.20;;;;;;4983443;28;20026;-65
2023/12/08 10:20:19;;;;;;;3.00;2.35;;;18.60;53.10;;;;;;4983777;28;20300;-67
2023/12/08 10:22:56;;;;;;;4.32;2.17;;;18.60;53.20;;;;;;4986647;28;20046;-66
2023/12/08 10:25:24;;;;;;;3.17;2.53;;;18.60;53.10;;;;;;4986378;28;20034;-65
2023/12/08 10:27:54;;;;;;;3.13;2.33;;;18.60;53.30;;;;;;4986819;28;20498;-66
2023/12/08 10:30:21;;;;;;;3.63;2.13;;;18.60;53.40;;;;;;4987722;28;20034;-65
2023/12/08 10:32:47;;;;;;;4.03;2.28;;;18.60;53.40;;;;;;4989417;28;20074;-67
2023/12/08 10:35:13;;;;;;;2.85;2.20;;;18.60;53.20;;;;;;4985736;28;20037;-66
2023/12/08 10:37:43;;;;;;;4.13;2.40;;;18.80;52.90;;;;;;4985472;28;20042;-66
2023/12/08 10:40:11;;;;;;;3.45;2.35;;;19.00;52.50;;;;;;4981901;28;20034;-67
2023/12/08 10:42:37;;;;;;;3.95;2.30;;;19.20;52.30;;;;;;4984968;28;20034;-67
2023/12/08 10:45:10;;;;;;;3.60;2.13;;;19.40;51.90;;;;;;4984588;28;20030;-67
2023/12/08 10:47:39;;;;;;;3.03;2.58;;;19.60;51.60;;;;;;4984715;28;20029;-66
2023/12/08 10:50:06;;;;;;;4.75;2.20;;;19.80;51.40;;;;;;4981430;28;20535;-66
2023/12/08 10:52:32;;;;;;;4.03;2.60;;;19.80;51.10;;;;;;4984790;28;20027;-66
2023/12/08 10:54:58;;;;;;;3.03;2.10;;;20.00;50.90;;;;;;4968075;28;20081;-66
2023/12/08 10:57:23;;;;;;;3.90;2.30;;;20.20;50.70;;;;;;4984522;28;20507;-66
2023/12/08 10:59:57;;;;;;;3.58;2.35;;;20.20;50.50;;;;;;4985025;28;20047;-66
2023/12/08 11:02:30;;;;;;;2.33;2.03;;;20.40;50.40;;;;;;4985621;28;20101;-63
2023/12/08 11:05:03;;;;;;;3.40;2.40;;;20.40;50.20;;;;;;4985028;28;20081;-66
2023/12/08 11:07:32;;;;;;;4.13;1.90;;;20.50;50.20;;;;;;4984658;28;20118;-66
2023/12/08 11:10:04;;;;;;;3.50;2.00;;;20.50;50.20;;;;;;4985100;28;20042;-67
2023/12/08 11:12:33;;;;;;;3.22;2.13;;;20.50;50.20;;;;;;4984766;28;20513;-67
2023/12/08 11:15:06;;;;;;;2.90;1.90;;;20.60;50.30;;;;;;4985000;28;20038;-66
2023/12/08 11:17:51;;;;;;;2.53;1.98;;;20.50;50.30;;;;;;4984770;28;20035;-67
2023/12/08 11:20:17;;;;;;;2.97;1.80;;;20.50;50.40;;;;;;4981480;28;20497;-66
2023/12/08 11:22:45;;;;;;;3.28;2.10;;;20.40;50.50;;;;;;4985644;28;20026;-66
2023/12/08 11:25:19;;;;;;;6.53;2.60;;;20.40;50.70;;;;;;4985168;28;20118;-67
2023/12/08 11:28:03;;;;;;;3.58;2.00;;;20.30;50.80;;;;;;4980193;28;20031;-66
2023/12/08 11:30:37;;;;;;;2.58;2.03;;;20.20;51.00;;;;;;4979057;28;20042;-66
2023/12/08 11:33:18;;;;;;;1.95;1.75;;;20.10;51.10;;;;;;4966412;28;20034;-66
2023/12/08 11:35:50;;;;;;;2.78;2.10;;;20.10;51.30;;;;;;4946158;28;20114;-66
2023/12/08 11:38:28;;;;;;;2.78;1.80;;;20.00;51.40;;;;;;4984706;28;20045;-65
2023/12/08 11:40:54;;;;;;;4.70;1.67;;;19.90;51.50;;;;;;4989328;28;20092;-65
2023/12/08 11:43:20;;;;;;;3.58;2.05;;;19.80;51.70;;;;;;4986887;28;20408;-67
2023/12/08 11:45:48;;;;;;;2.20;2.00;;;19.80;51.80;;;;;;4980999;28;20034;-68
2023/12/08 11:48:14;;;;;;;2.65;1.90;;;19.70;52.00;;;;;;4986638;28;20038;-69
2023/12/08 11:50:40;;;;;;;2.20;1.55;;;19.60;52.10;;;;;;4985094;28;20070;-65
2023/12/08 11:53:05;;;;;;;4.28;2.33;;;19.50;52.30;;;;;;4997498;28;20061;-66
2023/12/08 11:55:31;;;;;;;3.58;1.98;;;19.50;52.40;;;;;;4995970;28;20031;-66
2023/12/08 11:58:02;;;;;;;3.35;1.92;;;19.40;52.60;;;;;;4987783;28;20065;-67
2023/12/08 12:00:29;;;;;;;3.05;1.65;;;19.30;52.70;;;;;;4983630;28;20038;-66
2023/12/08 12:02:56;;;;;;;3.28;1.92;;;19.30;52.90;;;;;;4985223;28;20045;-65
2023/12/08 12:05:22;;;;;;;2.25;2.05;;;19.20;52.90;;;;;;4993144;28;20568;-66
2023/12/08 12:07:51;;;;;;;2.53;2.13;;;19.10;52.90;;;;;;4977585;28;20043;-66
2023/12/08 12:10:18;;;;;;;3.60;1.77;;;19.10;53.20;;;;;;4990281;28;20030;-65
2023/12/08 12:12:59;;;;;;;3.35;2.10;;;19.00;53.30;;;;;;4980049;28;20117;-66
2023/12/08 12:15:25;;;;;;;2.53;1.90;;;19.00;53.40;;;;;;4986129;28;20627;-66
2023/12/08 12:17:51;;;;;;;1.95;1.67;;;18.90;53.50;;;;;;4981666;28;20046;-66
2023/12/08 12:20:17;;;;;;;2.13;1.88;;;18.90;53.60;;;;;;4988109;28;20038;-66
2023/12/08 12:22:43;;;;;;;2.90;1.90;;;18.90;53.70;;;;;;4983699;28;20053;-66
2023/12/08 12:25:10;;;;;;;3.53;1.98;;;18.80;53.70;;;;;;4976966;28;20026;-66
2023/12/08 12:27:43;;;;;;;3.85;2.03;;;18.80;53.70;;;;;;4990707;28;20068;-67
2023/12/08 12:30:09;;;;;;;2.03;1.60;;;18.70;53.70;;;;;;4986764;28;20037;-65
2023/12/08 12:32:36;;;;;;;1.98;1.80;;;18.70;53.70;;;;;;4990564;28;20038;-66
2023/12/08 12:35:01;;;;;;;3.50;1.90;;;18.70;53.80;;;;;;4989216;28;20501;-66
2023/12/08 12:37:27;;;;;;;3.92;2.20;;;18.60;53.80;;;;;;4991687;28;20046;-66
2023/12/08 12:39:53;;;;;;;1.95;1.73;;;18.60;53.80;;;;;;4995562;28;20371;-66
2023/12/08 12:42:18;;;;;;;2.28;1.58;;;18.60;53.90;;;;;;4985535;28;20045;-68
2023/12/08 12:44:46;;;;;;;1.77;1.67;;;18.60;54.10;;;;;;4985290;28;20061;-65